Terminal Aerodrome Forecast
Issued by NWS

Home | Current Version | Previous Version | Text Only | Print | Product List | Glossary On
Versions: 1 2 3 4 5 6 7 8 9 10 11 12 13
722
FTUS45 KABQ 080528
TAFFMN
TAF
KFMN 080528Z 0806/0906 07005KT P6SM FEW250
     FM082000 28008KT P6SM SKC
     FM090200 VRB04KT P6SM SKC=

USA.gov is the U.S. government's official web portal to all federal, state and local government web resources and services.